Time;durP1;ratioP1;P1;durP2;ratioP2;P2;SDS_P1;SDS_P2;PMS_P1;PMS_P2;Temp;Humidity;BMP_temperature;BMP_pressure;BME280_temperature;BME280_humidity;BME280_pressure;Samples;Min_cycle;Max_cycle;Signal;HPM_P1;HPM_P2
2022/08/22 00:00:14;;;;;;;3.83;3.73;;;17.60;1.00;;;;;;6284584;28;20237;-55
2022/08/22 00:03:28;;;;;;;4.03;3.93;;;17.60;1.00;;;;;;6278784;28;20237;-55
2022/08/22 00:06:49;;;;;;;4.07;3.87;;;17.60;1.00;;;;;;6276840;28;20310;-55
2022/08/22 00:09:59;;;;;;;4.40;4.07;;;17.60;1.00;;;;;;6278848;28;20291;-54
2022/08/22 00:13:07;;;;;;;4.20;4.10;;;17.70;1.00;;;;;;6272887;28;20313;-54
2022/08/22 00:16:16;;;;;;;4.30;4.00;;;17.70;1.00;;;;;;6283332;28;20605;-56
2022/08/22 00:19:29;;;;;;;3.90;3.70;;;17.70;1.00;;;;;;6275222;28;20364;-55
2022/08/22 00:22:40;;;;;;;4.23;4.03;;;17.60;1.00;;;;;;6269427;28;20682;-56
2022/08/22 00:25:51;;;;;;;3.87;3.77;;;17.60;1.00;;;;;;6271232;28;20234;-55
2022/08/22 00:29:00;;;;;;;3.47;3.40;;;17.60;1.00;;;;;;6278143;28;20332;-54
2022/08/22 00:32:14;;;;;;;3.80;3.70;;;17.50;1.00;;;;;;6262776;28;20299;-55
2022/08/22 00:35:24;;;;;;;3.53;3.33;;;17.50;1.00;;;;;;6272083;28;20237;-55
2022/08/22 00:38:34;;;;;;;3.60;3.40;;;17.50;1.00;;;;;;6283969;28;20322;-55
2022/08/22 00:42:21;;;;;;;3.60;3.50;;;17.50;1.00;;;;;;6278652;28;20324;-55
2022/08/22 00:45:59;;;;;;;3.83;3.63;;;17.40;1.00;;;;;;6277542;28;20379;-55
2022/08/22 00:49:52;;;;;;;3.13;3.00;;;17.40;1.00;;;;;;6273269;28;20220;-56
2022/08/22 00:53:15;;;;;;;3.93;3.70;;;17.40;1.00;;;;;;6183747;28;20237;-56
2022/08/22 00:56:51;;;;;;;3.40;3.30;;;17.40;1.00;;;;;;6273177;28;20316;-54
2022/08/22 01:00:10;;;;;;;3.27;3.17;;;17.30;1.00;;;;;;6276418;28;20249;-56
2022/08/22 01:03:44;;;;;;;4.10;3.80;;;17.30;1.00;;;;;;6280564;28;20305;-53
2022/08/22 01:07:01;;;;;;;4.03;3.83;;;17.20;1.00;;;;;;6277369;28;20244;-55
2022/08/22 01:10:22;;;;;;;3.30;3.10;;;17.20;1.00;;;;;;6275356;28;20770;-55
2022/08/22 01:13:44;;;;;;;3.30;3.20;;;17.10;1.00;;;;;;6282911;28;20286;-55
2022/08/22 01:17:08;;;;;;;3.40;3.27;;;17.10;1.00;;;;;;6280186;28;20695;-55
2022/08/22 01:20:42;;;;;;;3.70;3.60;;;17.10;1.00;;;;;;6268944;28;20706;-54
2022/08/22 01:24:10;;;;;;;3.67;3.50;;;17.10;1.00;;;;;;6266369;28;20313;-55
2022/08/22 01:27:48;;;;;;;3.80;3.60;;;17.00;1.00;;;;;;6219258;28;20237;-55
2022/08/22 01:31:40;;;;;;;3.60;3.50;;;17.00;1.00;;;;;;6268333;28;20269;-57
2022/08/22 01:35:04;;;;;;;3.73;3.53;;;17.00;1.00;;;;;;6162236;28;20256;-54
2022/08/22 01:38:42;;;;;;;3.80;3.70;;;17.00;1.00;;;;;;6272161;28;20221;-54
2022/08/22 01:42:13;;;;;;;3.87;3.77;;;17.00;1.00;;;;;;6266355;28;20321;-55
2022/08/22 01:45:56;;;;;;;4.00;3.80;;;16.90;1.00;;;;;;6267352;28;20226;-56
2022/08/22 01:49:10;;;;;;;4.20;4.00;;;16.90;1.00;;;;;;6270902;28;20343;-55
2022/08/22 01:52:34;;;;;;;3.90;3.80;;;16.90;1.00;;;;;;6264467;28;20237;-54
2022/08/22 01:55:44;;;;;;;3.70;3.60;;;16.90;1.00;;;;;;6274692;28;20237;-55
2022/08/22 01:58:57;;;;;;;4.20;4.10;;;16.80;1.00;;;;;;6281043;28;20240;-54
2022/08/22 02:02:40;;;;;;;4.10;3.90;;;16.80;1.00;;;;;;6280057;28;20233;-54
2022/08/22 02:05:49;;;;;;;4.40;4.20;;;16.80;1.00;;;;;;6266697;28;20774;-56
2022/08/22 02:09:10;;;;;;;3.50;3.40;;;16.80;1.00;;;;;;6281498;28;20618;-54
2022/08/22 02:12:30;;;;;;;4.30;3.87;;;16.70;1.00;;;;;;6281267;28;20593;-55
2022/08/22 02:15:47;;;;;;;3.50;3.40;;;16.70;1.00;;;;;;6269623;28;20249;-56
2022/08/22 02:19:02;;;;;;;3.57;3.47;;;16.70;1.00;;;;;;6281744;28;20308;-55
2022/08/22 02:22:24;;;;;;;4.10;3.80;;;16.70;1.00;;;;;;6271340;28;20252;-55
2022/08/22 02:25:34;;;;;;;4.10;3.90;;;16.70;1.00;;;;;;6267184;28;20503;-55
2022/08/22 02:28:56;;;;;;;3.90;3.70;;;16.70;1.00;;;;;;6281003;28;20233;-55
2022/08/22 02:32:06;;;;;;;3.60;3.50;;;16.70;1.00;;;;;;6286850;28;20237;-55
2022/08/22 02:35:20;;;;;;;3.97;3.83;;;16.60;1.00;;;;;;6274542;28;20717;-54
2022/08/22 02:38:28;;;;;;;4.60;4.40;;;16.60;1.00;;;;;;6273877;28;20238;-54
2022/08/22 02:41:39;;;;;;;4.53;4.20;;;16.60;1.00;;;;;;6261722;28;20251;-56
2022/08/22 02:44:52;;;;;;;4.23;4.03;;;16.60;1.00;;;;;;6283743;28;20242;-56
2022/08/22 02:48:03;;;;;;;4.10;3.97;;;16.60;1.00;;;;;;6278038;28;20310;-55
2022/08/22 02:51:20;;;;;;;4.37;4.07;;;16.60;1.00;;;;;;6280228;28;20244;-55
2022/08/22 02:54:33;;;;;;;3.93;3.80;;;16.60;1.00;;;;;;6274750;28;20307;-55
2022/08/22 02:57:43;;;;;;;3.87;3.67;;;16.60;1.00;;;;;;6282644;28;20249;-55
2022/08/22 03:00:51;;;;;;;4.40;4.20;;;16.60;1.00;;;;;;6285344;28;20241;-55
2022/08/22 03:04:21;;;;;;;4.13;4.03;;;16.60;1.00;;;;;;6281471;28;20249;-54
2022/08/22 03:07:33;;;;;;;4.30;4.10;;;16.60;1.00;;;;;;6285524;28;20816;-55
2022/08/22 03:10:41;;;;;;;4.60;4.40;;;16.60;1.00;;;;;;6280028;28;20241;-54
2022/08/22 03:13:55;;;;;;;4.07;3.87;;;16.60;1.00;;;;;;6281386;28;20233;-54
2022/08/22 03:17:13;;;;;;;4.37;4.27;;;16.60;1.00;;;;;;6281632;28;20322;-55
2022/08/22 03:20:39;;;;;;;4.70;4.30;;;16.60;1.00;;;;;;6272635;28;20229;-56
2022/08/22 03:23:46;;;;;;;4.20;4.10;;;16.70;1.00;;;;;;6266393;28;20241;-54
2022/08/22 03:26:57;;;;;;;4.57;4.40;;;16.80;1.00;;;;;;6271959;28;20233;-55
2022/08/22 03:30:06;;;;;;;4.10;3.90;;;16.80;1.00;;;;;;6285334;28;20682;-58
2022/08/22 03:33:19;;;;;;;4.33;4.20;;;16.80;1.00;;;;;;6265351;28;20237;-55
2022/08/22 03:36:30;;;;;;;4.10;4.00;;;16.90;1.00;;;;;;6277544;28;20388;-55
2022/08/22 03:39:46;;;;;;;4.00;3.80;;;16.90;1.00;;;;;;6278499;28;20736;-55
2022/08/22 03:43:18;;;;;;;4.10;4.00;;;16.90;1.00;;;;;;6282069;28;20414;-54
2022/08/22 03:46:53;;;;;;;4.60;4.30;;;16.90;1.00;;;;;;6275798;28;20299;-55
2022/08/22 03:50:25;;;;;;;4.90;4.63;;;16.90;1.00;;;;;;6274514;28;20744;-55
2022/08/22 03:54:01;;;;;;;4.40;4.20;;;16.90;1.00;;;;;;6264674;28;20237;-55
2022/08/22 03:57:34;;;;;;;4.23;4.03;;;16.90;1.00;;;;;;6256488;28;20549;-52
2022/08/22 04:01:04;;;;;;;4.30;4.10;;;16.80;1.00;;;;;;6275621;28;20608;-54
2022/08/22 04:04:49;;;;;;;4.87;4.47;;;16.80;1.00;;;;;;6259743;28;20237;-54
2022/08/22 04:08:23;;;;;;;3.80;3.63;;;16.80;1.00;;;;;;6273237;28;20742;-55
2022/08/22 04:11:57;;;;;;;4.40;4.20;;;16.80;1.00;;;;;;6278255;28;20405;-60
2022/08/22 04:15:28;;;;;;;4.47;4.27;;;16.80;1.00;;;;;;6277425;28;20595;-55
2022/08/22 04:18:58;;;;;;;4.60;4.40;;;16.80;1.00;;;;;;6282469;28;20526;-55
2022/08/22 04:22:33;;;;;;;5.40;5.10;;;16.80;1.00;;;;;;6273123;28;20328;-54
2022/08/22 04:25:39;;;;;;;4.27;4.17;;;16.80;1.00;;;;;;6271865;28;20575;-54
2022/08/22 04:28:47;;;;;;;4.43;4.30;;;16.90;1.00;;;;;;6281523;28;20718;-55
2022/08/22 04:31:56;;;;;;;4.77;4.57;;;16.90;1.00;;;;;;6280168;28;20316;-55
2022/08/22 04:35:05;;;;;;;5.27;4.97;;;16.90;1.00;;;;;;6271784;28;20237;-56
2022/08/22 04:38:15;;;;;;;4.57;4.37;;;16.90;1.00;;;;;;6270977;28;20296;-55
2022/08/22 04:41:41;;;;;;;6.23;4.60;;;16.90;1.00;;;;;;6279878;28;20624;-56
2022/08/22 04:44:52;;;;;;;5.10;4.80;;;17.00;1.00;;;;;;6275760;28;20304;-55
2022/08/22 04:48:02;;;;;;;5.33;4.83;;;17.00;1.00;;;;;;6277773;28;20310;-57
2022/08/22 04:51:12;;;;;;;5.43;4.93;;;17.10;1.00;;;;;;6278824;28;20307;-55
2022/08/22 04:54:40;;;;;;;5.63;5.23;;;17.10;1.00;;;;;;6280746;28;20505;-54
2022/08/22 04:57:54;;;;;;;5.73;5.43;;;17.20;1.00;;;;;;6275930;28;20464;-56
2022/08/22 05:01:04;;;;;;;5.90;5.50;;;17.20;1.00;;;;;;6280479;28;20511;-55
2022/08/22 05:04:12;;;;;;;5.90;5.60;;;17.20;1.00;;;;;;6281423;28;20540;-56
2022/08/22 05:07:17;;;;;;;6.37;5.93;;;17.30;1.00;;;;;;6280096;28;20279;-55
2022/08/22 05:10:25;;;;;;;6.20;5.60;;;17.40;1.00;;;;;;6280760;28;20340;-56
2022/08/22 05:13:30;;;;;;;7.17;5.80;;;17.50;1.00;;;;;;6282569;28;20241;-56
2022/08/22 05:16:37;;;;;;;5.33;5.03;;;17.40;1.00;;;;;;6273485;28;20917;-55
2022/08/22 05:19:49;;;;;;;6.13;5.53;;;17.50;1.00;;;;;;6277959;28;20625;-55
2022/08/22 05:22:58;;;;;;;6.23;5.83;;;17.50;1.00;;;;;;6280696;28;20328;-54
2022/08/22 05:26:06;;;;;;;5.83;5.47;;;17.60;1.00;;;;;;6271585;28;20324;-56
2022/08/22 05:29:13;;;;;;;5.70;5.23;;;17.70;1.00;;;;;;6280509;28;20294;-53
2022/08/22 05:32:25;;;;;;;5.60;5.00;;;17.70;1.00;;;;;;6281092;28;20492;-53
2022/08/22 05:35:36;;;;;;;6.23;5.73;;;17.80;1.00;;;;;;6273741;28;20330;-54
2022/08/22 05:38:45;;;;;;;6.40;5.90;;;17.80;1.00;;;;;;6274237;28;20319;-55
2022/08/22 05:41:51;;;;;;;8.20;6.33;;;18.00;1.00;;;;;;6254599;28;20324;-55
2022/08/22 05:44:56;;;;;;;7.43;6.70;;;18.00;1.00;;;;;;6278862;28;20371;-55
2022/08/22 05:48:05;;;;;;;6.87;6.47;;;18.10;1.00;;;;;;6282422;28;20361;-56
2022/08/22 05:51:17;;;;;;;9.67;7.07;;;18.20;1.00;;;;;;6281508;28;20256;-55
2022/08/22 05:54:27;;;;;;;6.13;5.73;;;18.40;1.00;;;;;;6281712;28;20320;-55
2022/08/22 05:57:42;;;;;;;10.00;8.07;;;18.50;1.00;;;;;;6276732;28;20330;-56
2022/08/22 06:00:49;;;;;;;8.87;8.20;;;18.70;1.00;;;;;;6282647;28;20241;-55
2022/08/22 06:04:01;;;;;;;13.40;8.93;;;18.80;1.00;;;;;;6286936;28;20852;-55
2022/08/22 06:07:11;;;;;;;12.13;8.80;;;19.00;1.00;;;;;;6286755;28;20235;-55
2022/08/22 06:10:28;;;;;;;9.97;8.67;;;19.30;1.00;;;;;;6283705;28;20375;-56
2022/08/22 06:13:37;;;;;;;14.17;9.27;;;19.50;1.00;;;;;;6278450;28;20291;-56
2022/08/22 06:16:49;;;;;;;8.97;8.10;;;19.80;1.00;;;;;;6280474;28;20229;-56
2022/08/22 06:19:54;;;;;;;9.40;8.33;;;20.00;1.00;;;;;;6281436;28;20229;-56
2022/08/22 06:23:01;;;;;;;9.90;8.90;;;20.20;1.00;;;;;;6286745;28;20658;-55
2022/08/22 06:26:07;;;;;;;10.50;8.50;;;20.40;1.00;;;;;;6278454;28;20343;-56
2022/08/22 06:29:35;;;;;;;10.20;9.03;;;20.70;1.00;;;;;;6284601;28;20245;-55
2022/08/22 06:32:44;;;;;;;10.07;8.47;;;21.20;1.00;;;;;;6281872;28;20371;-55
2022/08/22 06:39:32;;;;;;;8.50;7.47;;;21.60;1.00;;;;;;6270220;28;20243;-55
2022/08/22 06:42:40;;;;;;;9.53;8.53;;;21.70;1.00;;;;;;6286087;28;20237;-55
2022/08/22 06:45:45;;;;;;;8.37;7.60;;;21.90;1.00;;;;;;6284973;28;20300;-56
2022/08/22 06:48:49;;;;;;;7.47;6.90;;;21.90;1.00;;;;;;6283695;28;20311;-56
2022/08/22 06:51:53;;;;;;;7.00;6.50;;;22.10;1.00;;;;;;6280226;28;20387;-56
2022/08/22 06:55:05;;;;;;;5.83;5.40;;;22.10;1.00;;;;;;6285175;28;20729;-56
2022/08/22 06:58:16;;;;;;;9.03;6.17;;;22.20;1.00;;;;;;6281743;28;20253;-60
2022/08/22 07:01:24;;;;;;;5.63;5.13;;;22.30;1.00;;;;;;6289237;28;20247;-58
2022/08/22 07:04:27;;;;;;;5.60;5.20;;;22.30;1.00;;;;;;6287577;28;20244;-57
2022/08/22 07:07:30;;;;;;;6.97;5.10;;;22.40;1.00;;;;;;6286389;28;20237;-55
2022/08/22 07:10:33;;;;;;;5.73;5.20;;;22.40;1.00;;;;;;6281142;28;20245;-56
2022/08/22 07:13:39;;;;;;;5.40;5.07;;;22.40;1.00;;;;;;6284554;28;20729;-56
2022/08/22 07:16:48;;;;;;;5.57;4.80;;;22.50;1.00;;;;;;6281436;28;20242;-58
2022/08/22 07:19:59;;;;;;;5.20;4.70;;;22.50;1.00;;;;;;6285078;28;20308;-57
2022/08/22 07:23:14;;;;;;;5.10;4.70;;;22.60;1.00;;;;;;6281953;28;20235;-57
2022/08/22 07:26:26;;;;;;;5.00;3.80;;;22.70;1.00;;;;;;6275299;28;20238;-56
2022/08/22 07:29:45;;;;;;;8.33;3.93;;;22.80;1.00;;;;;;6280855;28;20391;-56
2022/08/22 07:32:57;;;;;;;5.20;4.37;;;22.80;1.00;;;;;;6286003;28;20332;-57
2022/08/22 07:36:29;;;;;;;3.90;3.60;;;22.80;1.00;;;;;;6275271;28;20238;-56
2022/08/22 07:39:44;;;;;;;3.93;3.70;;;22.80;1.00;;;;;;6279213;28;20853;-57
2022/08/22 07:42:53;;;;;;;5.40;4.17;;;22.90;1.00;;;;;;6283752;28;20236;-56
2022/08/22 07:46:07;;;;;;;3.77;3.47;;;23.00;1.00;;;;;;6283400;28;20394;-57
2022/08/22 07:49:16;;;;;;;3.20;3.03;;;23.10;1.00;;;;;;6285294;28;20257;-56
2022/08/22 07:52:21;;;;;;;6.53;3.93;;;23.10;1.00;;;;;;6280614;28;20232;-55
2022/08/22 07:55:26;;;;;;;4.63;3.33;;;23.10;1.00;;;;;;6280620;28;20325;-56
2022/08/22 07:58:33;;;;;;;3.30;3.10;;;23.10;1.00;;;;;;6284357;28;20320;-55
2022/08/22 08:01:38;;;;;;;2.83;2.70;;;23.10;1.00;;;;;;6284136;28;20331;-57
2022/08/22 08:04:43;;;;;;;4.77;2.77;;;23.30;1.00;;;;;;6281569;28;20567;-56
2022/08/22 08:07:47;;;;;;;3.10;2.90;;;23.40;1.00;;;;;;6284950;28;20233;-56
2022/08/22 08:10:55;;;;;;;2.63;2.53;;;23.50;1.00;;;;;;6283149;28;20241;-56
2022/08/22 08:14:04;;;;;;;4.03;2.80;;;23.60;1.00;;;;;;6282705;28;20638;-57
2022/08/22 08:17:10;;;;;;;2.63;2.43;;;23.60;1.00;;;;;;6282338;28;20384;-55
2022/08/22 08:20:20;;;;;;;3.23;2.63;;;23.70;1.00;;;;;;6279289;28;20336;-56
2022/08/22 08:23:24;;;;;;;4.00;2.40;;;23.70;1.00;;;;;;6283461;28;20233;-57
2022/08/22 08:26:32;;;;;;;3.20;2.90;;;23.80;1.00;;;;;;6282070;28;20318;-56
2022/08/22 08:29:35;;;;;;;3.67;2.93;;;23.80;1.00;;;;;;6275001;28;20687;-57
2022/08/22 08:32:40;;;;;;;3.73;2.77;;;23.90;1.00;;;;;;6283874;28;20233;-57
2022/08/22 08:35:52;;;;;;;5.17;3.40;;;24.10;1.00;;;;;;6281338;28;20294;-57
2022/08/22 08:39:14;;;;;;;3.13;2.57;;;24.20;1.00;;;;;;6281880;28;20229;-57
2022/08/22 08:46:48;;;;;;;3.03;2.67;;;24.30;1.00;;;;;;6282011;28;20693;-56
2022/08/22 08:50:34;;;;;;;5.90;2.83;;;24.40;1.00;;;;;;6252885;28;20468;-53
2022/08/22 08:54:09;;;;;;;4.53;4.10;;;24.50;1.00;;;;;;6265231;28;20234;-57
2022/08/22 08:57:19;;;;;;;3.93;3.53;;;24.30;1.00;;;;;;6280730;28;20486;-57
2022/08/22 09:00:43;;;;;;;3.17;2.97;;;24.30;1.00;;;;;;6280924;28;20248;-57
2022/08/22 09:04:20;;;;;;;4.47;3.50;;;24.30;1.00;;;;;;6276649;28;20241;-56
2022/08/22 09:07:48;;;;;;;3.50;3.30;;;24.30;1.00;;;;;;6230381;28;20242;-56
2022/08/22 09:11:37;;;;;;;2.93;2.73;;;24.30;1.00;;;;;;6273441;28;20241;-57
2022/08/22 09:15:11;;;;;;;4.80;3.30;;;24.50;1.00;;;;;;6278015;28;20492;-57
2022/08/22 09:18:44;;;;;;;4.63;2.77;;;24.70;1.00;;;;;;6279019;28;20233;-57
2022/08/22 09:22:10;;;;;;;3.37;3.07;;;24.80;1.00;;;;;;6281030;28;20245;-58
2022/08/22 09:25:22;;;;;;;5.17;4.30;;;24.80;1.00;;;;;;6280087;28;20244;-56
2022/08/22 09:28:37;;;;;;;5.10;4.27;;;24.80;1.00;;;;;;6281923;28;20225;-55
2022/08/22 09:31:48;;;;;;;4.33;3.40;;;24.80;1.00;;;;;;6280212;28;20726;-56
2022/08/22 09:35:06;;;;;;;3.30;3.00;;;24.70;1.00;;;;;;6281411;28;20229;-56
2022/08/22 09:38:27;;;;;;;4.03;3.63;;;24.60;1.00;;;;;;6282781;28;20330;-57
2022/08/22 09:41:40;;;;;;;3.43;3.13;;;24.60;1.00;;;;;;6282529;28;20941;-56
2022/08/22 09:44:58;;;;;;;4.03;3.17;;;24.70;1.00;;;;;;6280530;28;20328;-55
2022/08/22 09:48:09;;;;;;;7.00;3.40;;;24.70;1.00;;;;;;6282634;28;20229;-57
2022/08/22 09:51:19;;;;;;;5.23;3.60;;;24.70;1.00;;;;;;6282232;28;20672;-56
2022/08/22 09:54:40;;;;;;;4.00;3.60;;;24.60;1.00;;;;;;6268680;28;20241;-57
2022/08/22 09:57:51;;;;;;;3.70;3.30;;;24.60;1.00;;;;;;6275498;28;20320;-57
2022/08/22 10:00:59;;;;;;;4.73;4.20;;;24.60;1.00;;;;;;6274718;28;20695;-56
2022/08/22 10:04:39;;;;;;;7.53;4.10;;;24.80;1.00;;;;;;6281945;28;20233;-57
2022/08/22 10:08:13;;;;;;;3.47;3.03;;;25.00;1.00;;;;;;6275078;28;20232;-58
2022/08/22 10:11:26;;;;;;;3.73;3.10;;;25.20;1.00;;;;;;6273776;28;20241;-57
2022/08/22 10:14:39;;;;;;;4.53;4.13;;;25.40;1.00;;;;;;6281309;28;20256;-57
2022/08/22 10:18:06;;;;;;;4.20;3.80;;;25.40;1.00;;;;;;6276824;28;20725;-58
2022/08/22 10:21:22;;;;;;;5.03;4.43;;;25.50;1.00;;;;;;6279433;28;20384;-57
2022/08/22 10:24:41;;;;;;;5.33;3.40;;;25.50;1.00;;;;;;6280573;28;20315;-56
2022/08/22 10:27:56;;;;;;;4.40;4.03;;;25.50;1.00;;;;;;6272754;28;20761;-57
2022/08/22 10:31:21;;;;;;;3.83;3.53;;;25.40;1.00;;;;;;6271725;28;20509;-56
2022/08/22 10:34:30;;;;;;;3.03;2.77;;;25.30;1.00;;;;;;6279054;28;20767;-57
2022/08/22 10:37:39;;;;;;;3.73;3.07;;;25.40;1.00;;;;;;6273264;28;20317;-56
2022/08/22 10:40:57;;;;;;;3.43;3.13;;;25.50;1.00;;;;;;6274321;28;20259;-57
2022/08/22 10:44:08;;;;;;;6.13;4.30;;;25.40;1.00;;;;;;6280438;28;20234;-59
2022/08/22 10:47:17;;;;;;;3.97;2.80;;;25.40;1.00;;;;;;6284850;28;20233;-58
2022/08/22 10:50:28;;;;;;;3.80;2.87;;;25.50;1.00;;;;;;6285561;28;20237;-57
2022/08/22 10:53:45;;;;;;;7.00;4.00;;;25.50;1.00;;;;;;6286174;28;20244;-57
2022/08/22 10:56:55;;;;;;;3.63;3.33;;;25.50;1.00;;;;;;6279507;28;20268;-57
2022/08/22 11:00:08;;;;;;;3.50;2.70;;;25.50;1.00;;;;;;6285298;28;20508;-57
2022/08/22 11:03:16;;;;;;;4.50;3.87;;;25.50;1.00;;;;;;6285873;28;20627;-57
2022/08/22 11:06:30;;;;;;;5.00;3.10;;;25.60;1.00;;;;;;6285038;28;20642;-56
2022/08/22 11:09:39;;;;;;;3.70;3.00;;;25.50;1.00;;;;;;6257502;28;20307;-56
2022/08/22 11:13:02;;;;;;;4.20;3.03;;;25.50;1.00;;;;;;6279348;28;20274;-56
2022/08/22 11:16:16;;;;;;;5.67;3.40;;;25.80;1.00;;;;;;6285369;28;20294;-57
2022/08/22 11:19:38;;;;;;;4.07;3.60;;;26.00;1.00;;;;;;6283663;28;20233;-56
2022/08/22 11:22:54;;;;;;;3.83;3.30;;;26.10;1.00;;;;;;6280382;28;20375;-55
2022/08/22 11:26:08;;;;;;;7.00;3.73;;;26.10;1.00;;;;;;6283690;28;20268;-57
2022/08/22 11:29:37;;;;;;;4.00;3.47;;;26.20;1.00;;;;;;6283731;28;20324;-57
2022/08/22 11:33:09;;;;;;;4.73;3.50;;;26.10;1.00;;;;;;6279129;28;20237;-57
2022/08/22 11:36:26;;;;;;;5.07;3.37;;;25.90;1.00;;;;;;6282953;28;20763;-58
2022/08/22 11:39:38;;;;;;;7.40;3.40;;;25.90;1.00;;;;;;6283593;28;20264;-57
2022/08/22 11:42:47;;;;;;;8.20;3.57;;;25.90;1.00;;;;;;6281658;28;20265;-58
2022/08/22 11:45:56;;;;;;;2.77;2.67;;;26.00;1.00;;;;;;6283546;28;20329;-57
2022/08/22 11:49:33;;;;;;;3.27;2.50;;;26.10;1.00;;;;;;6284312;28;20294;-57
2022/08/22 11:52:55;;;;;;;2.53;2.43;;;26.00;1.00;;;;;;6259372;28;20268;-58
2022/08/22 11:56:16;;;;;;;5.20;3.43;;;26.00;1.00;;;;;;6283949;28;20233;-57
2022/08/22 11:59:29;;;;;;;3.30;2.50;;;26.00;1.00;;;;;;6281593;28;20291;-56
2022/08/22 12:02:46;;;;;;;4.57;3.70;;;26.00;1.00;;;;;;6284628;28;20507;-56
2022/08/22 12:05:52;;;;;;;3.00;2.80;;;26.00;1.00;;;;;;6275978;28;20644;-58
2022/08/22 12:09:20;;;;;;;4.37;3.17;;;26.10;1.00;;;;;;6280315;28;20236;-57
2022/08/22 12:12:54;;;;;;;2.97;2.43;;;26.40;1.00;;;;;;6284123;28;20761;-57
2022/08/22 12:16:07;;;;;;;3.10;3.00;;;26.70;1.00;;;;;;6278503;28;20259;-56
2022/08/22 12:19:19;;;;;;;4.73;2.50;;;26.70;1.00;;;;;;6283352;28;20776;-57
2022/08/22 12:22:48;;;;;;;2.43;2.33;;;26.60;1.00;;;;;;6255122;28;20241;-56
2022/08/22 12:26:10;;;;;;;4.70;3.03;;;26.60;1.00;;;;;;6276897;28;20238;-59
2022/08/22 12:29:29;;;;;;;4.00;2.67;;;26.50;1.00;;;;;;6281172;28;20276;-57
2022/08/22 12:33:24;;;;;;;5.70;3.07;;;26.40;1.00;;;;;;6279449;28;20240;-57
2022/08/22 12:36:55;;;;;;;3.63;3.33;;;26.40;1.00;;;;;;6281554;28;20229;-58
2022/08/22 12:40:30;;;;;;;4.53;4.07;;;26.20;1.00;;;;;;6264911;28;20303;-58
2022/08/22 12:43:48;;;;;;;6.33;2.90;;;26.20;1.00;;;;;;6275842;28;20241;-58
2022/08/22 12:47:06;;;;;;;4.07;2.80;;;26.10;1.00;;;;;;6279660;28;20529;-57
2022/08/22 12:50:28;;;;;;;5.80;2.60;;;26.20;1.00;;;;;;6278951;28;20268;-57
2022/08/22 12:53:59;;;;;;;5.60;2.90;;;26.30;1.00;;;;;;6281045;28;20245;-58
2022/08/22 12:57:16;;;;;;;2.83;2.70;;;26.30;1.00;;;;;;6275633;28;20597;-57
2022/08/22 13:00:33;;;;;;;3.10;2.90;;;26.40;1.00;;;;;;6281819;28;20732;-58
2022/08/22 13:03:45;;;;;;;2.93;2.83;;;26.50;1.00;;;;;;6266825;28;20326;-57
2022/08/22 13:07:02;;;;;;;2.40;2.13;;;26.60;1.00;;;;;;6282738;28;20355;-58
2022/08/22 13:10:33;;;;;;;4.23;2.67;;;26.60;1.00;;;;;;6278107;28;20512;-58
2022/08/22 13:13:39;;;;;;;3.30;3.03;;;26.70;1.00;;;;;;6272656;28;20290;-57
2022/08/22 13:16:47;;;;;;;3.37;2.70;;;26.60;1.00;;;;;;6281938;28;20709;-56
2022/08/22 13:20:00;;;;;;;2.83;2.67;;;26.50;1.00;;;;;;6281880;28;20241;-56
2022/08/22 13:23:12;;;;;;;2.60;2.47;;;26.40;1.00;;;;;;6275189;28;21311;-57
2022/08/22 13:26:17;;;;;;;2.33;2.23;;;26.50;1.00;;;;;;6281996;28;20286;-57
2022/08/22 13:29:44;;;;;;;3.03;2.90;;;26.60;1.00;;;;;;6277913;28;20878;-58
2022/08/22 13:32:50;;;;;;;3.50;3.00;;;26.50;1.00;;;;;;6279059;28;20659;-58
2022/08/22 13:36:01;;;;;;;2.67;2.53;;;26.50;1.00;;;;;;6281662;28;20845;-55
2022/08/22 13:39:23;;;;;;;3.43;3.27;;;26.50;1.00;;;;;;6281193;28;20718;-58
2022/08/22 13:42:29;;;;;;;4.20;3.63;;;26.50;1.00;;;;;;6285456;28;20328;-57
2022/08/22 13:45:36;;;;;;;2.83;2.63;;;26.40;1.00;;;;;;6285976;28;20733;-58
2022/08/22 13:48:48;;;;;;;3.27;2.87;;;26.10;1.00;;;;;;6286666;28;20608;-56
2022/08/22 13:52:02;;;;;;;4.30;3.00;;;26.00;1.00;;;;;;6274347;28;20238;-60
2022/08/22 13:55:10;;;;;;;2.83;2.67;;;25.80;1.00;;;;;;6275382;28;20233;-57
2022/08/22 13:58:23;;;;;;;5.10;3.33;;;25.70;1.00;;;;;;6282135;28;20389;-56
2022/08/22 14:01:37;;;;;;;3.60;3.30;;;25.70;1.00;;;;;;6271210;28;20713;-57
2022/08/22 14:04:42;;;;;;;3.53;3.33;;;25.60;1.00;;;;;;6266291;28;20652;-55
2022/08/22 14:08:11;;;;;;;3.50;3.20;;;25.40;1.00;;;;;;6279688;28;20401;-55
2022/08/22 14:11:26;;;;;;;20.03;7.53;;;25.50;1.00;;;;;;6277711;28;20312;-55
2022/08/22 14:14:33;;;;;;;3.60;3.40;;;25.50;1.00;;;;;;6275041;28;20238;-59
2022/08/22 14:17:41;;;;;;;2.70;2.60;;;25.40;1.00;;;;;;6270192;28;20320;-59
2022/08/22 14:20:46;;;;;;;3.60;3.43;;;25.40;1.00;;;;;;6278410;28;20240;-56
2022/08/22 14:23:54;;;;;;;3.23;3.00;;;25.40;1.00;;;;;;6269748;28;20603;-55
2022/08/22 14:27:03;;;;;;;3.50;3.23;;;25.40;1.00;;;;;;6284560;28;20603;-56
2022/08/22 14:30:14;;;;;;;4.23;2.97;;;25.50;1.00;;;;;;6275508;28;20233;-55
2022/08/22 14:33:21;;;;;;;3.90;3.50;;;25.50;1.00;;;;;;6283717;28;20464;-54
2022/08/22 14:36:28;;;;;;;5.27;3.50;;;25.40;1.00;;;;;;6282624;28;20277;-55
2022/08/22 14:39:40;;;;;;;4.87;3.57;;;25.40;1.00;;;;;;6273551;28;20241;-55
2022/08/22 14:42:49;;;;;;;2.93;2.83;;;25.40;1.00;;;;;;6281223;28;20306;-57
2022/08/22 14:45:57;;;;;;;3.73;3.43;;;25.30;1.00;;;;;;6286423;28;20237;-56
2022/08/22 14:49:26;;;;;;;3.33;2.97;;;25.40;1.00;;;;;;6284671;28;20233;-57
2022/08/22 14:52:39;;;;;;;3.63;3.30;;;25.30;1.00;;;;;;6273044;28;20252;-56
2022/08/22 14:55:53;;;;;;;4.33;3.60;;;25.40;1.00;;;;;;6273258;28;20554;-54
2022/08/22 14:58:59;;;;;;;6.47;3.27;;;25.50;1.00;;;;;;6285449;28;20312;-56
2022/08/22 15:02:13;;;;;;;3.23;3.00;;;25.50;1.00;;;;;;6282224;28;20229;-56
2022/08/22 15:05:20;;;;;;;3.50;3.30;;;25.50;1.00;;;;;;6282353;28;20753;-56
2022/08/22 15:08:31;;;;;;;3.90;3.47;;;25.50;1.00;;;;;;6278516;28;20237;-54
2022/08/22 15:11:36;;;;;;;3.27;3.17;;;25.60;1.00;;;;;;6281250;28;20253;-55
2022/08/22 15:14:46;;;;;;;6.37;2.97;;;25.60;1.00;;;;;;6275304;28;20241;-56
2022/08/22 15:17:54;;;;;;;3.73;3.43;;;25.70;1.00;;;;;;6277519;28;20659;-57
2022/08/22 15:21:04;;;;;;;3.20;3.00;;;25.60;1.00;;;;;;6284907;28;20240;-55
2022/08/22 15:24:13;;;;;;;3.93;3.37;;;25.70;1.00;;;;;;6284576;28;20222;-55
2022/08/22 15:27:19;;;;;;;3.27;3.13;;;25.60;1.00;;;;;;6281636;28;20264;-55
2022/08/22 15:30:37;;;;;;;2.97;2.87;;;25.70;1.00;;;;;;6280727;28;20298;-56
2022/08/22 15:34:09;;;;;;;3.40;3.10;;;25.80;1.00;;;;;;6280119;28;20222;-56
2022/08/22 15:37:29;;;;;;;3.20;3.10;;;25.80;1.00;;;;;;6284280;28;20358;-55
2022/08/22 15:40:38;;;;;;;3.53;3.23;;;25.90;1.00;;;;;;6277840;28;20332;-55
2022/08/22 15:43:49;;;;;;;6.17;5.27;;;25.80;1.00;;;;;;6285173;28;20581;-55
2022/08/22 15:47:08;;;;;;;5.43;3.80;;;25.70;1.00;;;;;;6283235;28;20431;-54
2022/08/22 15:50:33;;;;;;;4.13;3.83;;;25.70;1.00;;;;;;6284525;28;20722;-54
2022/08/22 15:54:01;;;;;;;3.70;3.50;;;25.70;1.00;;;;;;6284936;28;20241;-55
2022/08/22 15:57:17;;;;;;;3.30;3.07;;;25.60;1.00;;;;;;6278039;28;20359;-55
2022/08/22 16:00:29;;;;;;;3.13;3.03;;;25.50;1.00;;;;;;6284032;28;20245;-53
2022/08/22 16:03:38;;;;;;;4.00;3.53;;;25.50;1.00;;;;;;6284051;28;20563;-56
2022/08/22 16:06:45;;;;;;;3.70;3.03;;;25.50;1.00;;;;;;6283865;28;20630;-56
2022/08/22 16:09:50;;;;;;;3.93;3.30;;;25.40;1.00;;;;;;6283883;28;20253;-55
2022/08/22 16:13:13;;;;;;;4.10;3.70;;;25.30;1.00;;;;;;6281536;28;20529;-57
2022/08/22 16:16:59;;;;;;;4.00;3.80;;;25.10;1.00;;;;;;6283409;28;20486;-56
2022/08/22 16:20:46;;;;;;;4.90;4.40;;;24.80;1.00;;;;;;6269601;28;20285;-55
2022/08/22 16:24:27;;;;;;;4.50;4.10;;;24.70;1.00;;;;;;6278480;28;20442;-56
2022/08/22 16:27:30;;;;;;;5.80;3.60;;;24.70;1.00;;;;;;6282932;28;20774;-57
2022/08/22 16:30:37;;;;;;;3.40;3.10;;;24.50;1.00;;;;;;6275292;28;20424;-56
2022/08/22 16:33:42;;;;;;;4.43;3.20;;;24.50;1.00;;;;;;6278410;28;20233;-57
2022/08/22 16:36:49;;;;;;;3.63;3.17;;;24.30;1.00;;;;;;6278298;28;20256;-54
2022/08/22 16:40:08;;;;;;;3.10;2.97;;;24.20;1.00;;;;;;6276708;28;20240;-55
2022/08/22 16:43:18;;;;;;;3.50;3.07;;;24.10;1.00;;;;;;6280687;28;20429;-56
2022/08/22 16:46:28;;;;;;;5.53;3.80;;;24.00;1.00;;;;;;6275222;28;20241;-55
2022/08/22 16:49:55;;;;;;;3.13;3.03;;;23.80;1.00;;;;;;6279620;28;20246;-56
2022/08/22 16:53:03;;;;;;;2.90;2.80;;;23.70;1.00;;;;;;6280189;28;20233;-55
2022/08/22 16:56:16;;;;;;;3.20;3.00;;;23.50;1.00;;;;;;6281790;28;20232;-56
2022/08/22 16:59:46;;;;;;;5.27;3.47;;;23.40;1.00;;;;;;6278876;28;20245;-55
2022/08/22 17:03:07;;;;;;;3.30;3.00;;;23.30;1.00;;;;;;6274865;28;20270;-60
2022/08/22 17:06:31;;;;;;;3.40;3.10;;;23.20;1.00;;;;;;6256646;28;20237;-56
2022/08/22 17:09:58;;;;;;;2.93;2.73;;;23.10;1.00;;;;;;6275164;28;20376;-56
2022/08/22 17:13:26;;;;;;;3.23;2.83;;;23.00;1.00;;;;;;6278279;28;20318;-57
2022/08/22 17:16:46;;;;;;;2.60;2.50;;;22.90;1.00;;;;;;6276507;28;20819;-56
2022/08/22 17:20:10;;;;;;;3.40;3.20;;;22.80;1.00;;;;;;6276576;28;20261;-56
2022/08/22 17:23:25;;;;;;;3.10;2.80;;;22.80;1.00;;;;;;6272816;28;20291;-56